| time (UTC) | temp F | wind direction | speed MPH | gust MPH | rain 1hr in | rain 24hr in | rain mn in | humidity % | barometer mb |
| 20260510130150 | 55 | 180 | 0.0 | 0.0 | 0.00 | 0.34 | 0.00 | 97 | 1012.4 |
| 20260510125147 | 55 | 179 | 0.0 | 0.0 | 0.00 | 0.34 | 0.00 | 98 | 1012.4 |
| 20260510123011 | 54 | 181 | 0.0 | 0.0 | 0.00 | 0.34 | 0.00 | 98 | 1012.1 |
| 20260510122021 | 54 | 51 | 0.0 | 0.0 | 0.00 | 0.35 | 0.00 | 98 | 1011.9 |
| 20260510121039 | 54 | 51 | 0.0 | 0.0 | 0.00 | 0.35 | 0.00 | 98 | 1011.9 |
| 20260510120040 | 54 | 51 | 0.0 | 0.0 | 0.00 | 0.35 | 0.00 | 98 | 1011.8 |
| 20260510115021 | 54 | 51 | 0.0 | 0.0 | 0.00 | 0.35 | 0.00 | 98 | 1011.9 |
| 20260510113950 | 53 | 163 | 0.0 | 0.0 | 0.00 | 0.35 | 0.00 | 98 | 1011.6 |
| 20260510112936 | 53 | 163 | 0.0 | 0.0 | 0.00 | 0.35 | 0.00 | 98 | 1011.6 |
| 20260510111904 | 53 | 163 | 0.0 | 0.0 | 0.00 | 0.35 | 0.00 | 98 | 1011.5 |
| 20260510110910 | 53 | 163 | 0.0 | 0.0 | 0.00 | 0.35 | 0.00 | 98 | 1011.5 |
| 20260510105904 | 53 | 163 | 0.0 | 0.0 | 0.00 | 0.35 | 0.00 | 99 | 1011.6 |
| 20260510104915 | 53 | 163 | 0.0 | 0.0 | 0.00 | 0.35 | 0.00 | 99 | 1011.5 |
| 20260510103854 | 52 | 163 | 0.0 | 0.0 | 0.00 | 0.35 | 0.00 | 99 | 1011.4 |
| 20260510102835 | 51 | 163 | 0.0 | 0.0 | 0.00 | 0.35 | 0.00 | 98 | 1011.3 |
| 20260510101858 | 51 | 163 | 0.0 | 0.0 | 0.00 | 0.35 | 0.00 | 98 | 1011.5 |
| 20260510100824 | 51 | 163 | 0.0 | 0.0 | 0.00 | 0.35 | 0.00 | 98 | 1011.4 |
| 20260510095837 | 52 | 163 | 0.0 | 0.0 | 0.00 | 0.35 | 0.00 | 98 | 1011.4 |
| 20260510094901 | 52 | 163 | 0.0 | 0.0 | 0.00 | 0.35 | 0.00 | 98 | 1011.5 |
| 20260510093912 | 51 | 163 | 0.0 | 0.0 | 0.00 | 0.35 | 0.00 | 98 | 1011.5 |
| 20260510092851 | 52 | 163 | 0.0 | 0.0 | 0.00 | 0.35 | 0.00 | 98 | 1011.6 |
| 20260510091857 | 52 | 163 | 0.0 | 0.0 | 0.00 | 0.35 | 0.00 | 98 | 1011.6 |
| 20260510090830 | 52 | 163 | 0.0 | 0.0 | 0.00 | 0.35 | 0.00 | 98 | 1011.6 |
| 20260510085804 | 52 | 152 | 0.0 | 0.0 | 0.00 | 0.35 | 0.00 | 98 | 1011.7 |
| 20260510084745 | 52 | 205 | 0.0 | 2.0 | 0.00 | 0.35 | 0.00 | 98 | 1011.7 |
| 20260510083748 | 52 | 338 | 0.0 | 0.0 | 0.00 | 0.35 | 0.00 | 98 | 1011.7 |
| 20260510082804 | 53 | 337 | 0.0 | 0.0 | 0.00 | 0.35 | 0.00 | 98 | 1011.7 |
| 20260510081735 | 53 | 337 | 0.0 | 0.0 | 0.00 | 0.35 | 0.00 | 98 | 1011.3 |
| 20260510080722 | 53 | 338 | 0.0 | 0.0 | 0.00 | 0.35 | 0.00 | 98 | 1010.9 |
| 20260510075709 | 53 | 337 | 0.0 | 0.0 | 0.00 | 0.35 | 0.00 | 98 | 1010.7 |
| 20260510074702 | 53 | 337 | 0.0 | 0.0 | 0.00 | 0.35 | 0.00 | 98 | 1010.7 |
| 20260510073728 | 53 | 338 | 0.0 | 0.0 | 0.00 | 0.35 | 0.00 | 98 | 1010.7 |
| 20260510072706 | 53 | 337 | 0.0 | 0.0 | 0.00 | 0.35 | 0.00 | 98 | 1010.8 |
| 20260510071713 | 53 | 338 | 0.0 | 0.0 | 0.00 | 0.36 | 0.00 | 98 | 1010.9 |
| 20260510070731 | 53 | 337 | 0.0 | 0.0 | 0.00 | 0.36 | 0.00 | 98 | 1010.8 |
| 20260510064537 | 53 | 337 | 0.0 | 0.0 | 0.00 | 0.36 | 0.00 | 98 | 1010.8 |
| 20260510063547 | 53 | 337 | 0.0 | 0.0 | 0.00 | 0.36 | 0.00 | 98 | 1010.8 |
| 20260510062536 | 53 | 337 | 0.0 | 0.0 | 0.00 | 0.36 | 0.00 | 98 | 1010.7 |
| 20260510061552 | 53 | 337 | 0.0 | 0.0 | 0.00 | 0.36 | 0.00 | 98 | 1010.5 |
| 20260510060611 | 53 | 337 | 0.0 | 0.0 | 0.00 | 0.36 | 0.00 | 98 | 1010.6 |
| 20260510055624 | 53 | 337 | 0.0 | 0.0 | 0.00 | 0.36 | 0.00 | 98 | 1010.5 |
| 20260510053517 | 53 | 337 | 0.0 | 0.0 | 0.00 | 0.36 | 0.00 | 98 | 1010.8 |
| 20260510052540 | 53 | 338 | 0.0 | 0.0 | 0.00 | 0.36 | 0.00 | 98 | 1010.8 |
| 20260510051524 | 53 | 336 | 0.0 | 0.0 | 0.00 | 0.36 | 0.00 | 98 | 1010.9 |
| 20260510050503 | 53 | 335 | 0.0 | 0.0 | 0.00 | 0.36 | 0.00 | 98 | 1010.8 |
| 20260510045502 | 53 | 337 | 0.0 | 0.0 | 0.00 | 0.36 | 0.00 | 98 | 1010.8 |
| 20260510044429 | 53 | 337 | 0.0 | 0.0 | 0.00 | 0.36 | 0.00 | 98 | 1010.7 |
| 20260510043415 | 53 | 338 | 0.0 | 0.0 | 0.00 | 0.36 | 0.00 | 98 | 1010.8 |
| 20260510042416 | 53 | 337 | 0.0 | 0.0 | 0.00 | 0.36 | 0.00 | 98 | 1010.8 |
| 20260510041434 | 53 | 337 | 0.0 | 0.0 | 0.00 | 0.36 | 0.00 | 98 | 1010.7 |
| 20260510040421 | 53 | 337 | 0.0 | 0.0 | 0.00 | 0.36 | 0.00 | 98 | 1010.5 |
| 20260510034333 | 54 | 335 | 0.0 | 0.0 | 0.00 | 0.36 | 0.37 | 98 | 1010.3 |
| 20260510033344 | 54 | 335 | 0.0 | 0.0 | 0.00 | 0.36 | 0.37 | 98 | 1010.4 |
| 20260510032337 | 54 | 335 | 0.0 | 0.0 | 0.00 | 0.36 | 0.37 | 98 | 1010.2 |
| 20260510031328 | 54 | 335 | 0.0 | 0.0 | 0.00 | 0.36 | 0.37 | 98 | 1010.4 |
| 20260510030259 | 54 | 335 | 0.0 | 0.0 | 0.00 | 0.36 | 0.37 | 98 | 1010.5 |
| 20260510024156 | 54 | 336 | 0.0 | 0.0 | 0.00 | 0.36 | 0.37 | 98 | 1010.6 |
| 20260510023125 | 54 | 335 | 0.0 | 0.0 | 0.00 | 0.36 | 0.37 | 98 | 1010.7 |
| 20260510022145 | 54 | 335 | 0.0 | 0.0 | 0.00 | 0.36 | 0.37 | 98 | 1010.6 |
| 20260510020014 | 54 | 340 | 0.0 | 0.0 | 0.00 | 0.36 | 0.37 | 98 | 1010.6 |
| 20260510014957 | 54 | 340 | 0.0 | 0.0 | 0.00 | 0.36 | 0.37 | 98 | 1010.4 |
| 20260510012834 | 54 | 340 | 0.0 | 0.0 | 0.00 | 0.36 | 0.37 | 98 | 1010.2 |
| 20260510011804 | 54 | 340 | 0.0 | 0.0 | 0.00 | 0.36 | 0.37 | 98 | 1010.0 |
| 20260510010731 | 54 | 340 | 0.0 | 0.0 | 0.00 | 0.36 | 0.37 | 97 | 1010.1 |
| 20260510005709 | 54 | 339 | 0.0 | 0.0 | 0.00 | 0.36 | 0.37 | 97 | 1010.0 |
| 20260510004726 | 55 | 340 | 0.0 | 0.0 | 0.00 | 0.36 | 0.37 | 97 | 1010.0 |
| 20260510003726 | 55 | 340 | 0.0 | 0.0 | 0.00 | 0.36 | 0.37 | 98 | 1009.9 |
| 20260510002658 | 55 | 340 | 0.0 | 0.0 | 0.00 | 0.36 | 0.37 | 98 | 1009.9 |
| 20260510001623 | 55 | 340 | 0.0 | 0.0 | 0.00 | 0.36 | 0.37 | 97 | 1009.8 |
| 20260509235425 | 56 | 340 | 0.0 | 0.0 | 0.00 | 0.36 | 0.37 | 97 | 1009.8 |
| 20260509233324 | 56 | 340 | 0.0 | 0.0 | 0.00 | 0.36 | 0.37 | 97 | 1009.7 |
| 20260509231149 | 56 | 340 | 0.0 | 0.0 | 0.05 | 0.36 | 0.37 | 97 | 1009.7 |
| 20260509230209 | 56 | 340 | 0.0 | 0.0 | 0.10 | 0.36 | 0.37 | 97 | 1009.4 |
| 20260509225150 | 56 | 116 | 0.0 | 0.0 | 0.25 | 0.35 | 0.35 | 97 | 1010.5 |
| 20260509224155 | 57 | 117 | 0.0 | 0.0 | 0.05 | 0.32 | 0.32 | 97 | 1010.3 |
| 20260509223145 | 57 | 117 | 0.0 | 0.0 | 0.13 | 0.31 | 0.31 | 97 | 1010.4 |
| 20260509222203 | 57 | 117 | 0.0 | 0.0 | 0.38 | 0.29 | 0.28 | 97 | 1010.5 |
| 20260509221219 | 57 | 115 | 0.0 | 0.0 | 0.00 | 0.24 | 0.24 | 97 | 1010.7 |
| 20260509220227 | 57 | 253 | 0.0 | 1.0 | 0.00 | 0.23 | 0.23 | 97 | 1010.0 |
| 20260509214133 | 57 | 167 | 0.0 | 0.0 | 0.00 | 0.23 | 0.23 | 96 | 1010.4 |
| 20260509213149 | 57 | 166 | 0.0 | 0.0 | 0.00 | 0.21 | 0.21 | 96 | 1010.6 |
| 20260509211027 | 57 | 166 | 0.0 | 0.0 | 0.04 | 0.21 | 0.21 | 96 | 1010.8 |
| 20260509205955 | 57 | 166 | 0.0 | 0.0 | 0.06 | 0.21 | 0.21 | 96 | 1010.6 |
| 20260509205015 | 57 | 167 | 0.0 | 0.0 | 0.09 | 0.21 | 0.21 | 96 | 1010.6 |
| 20260509204015 | 57 | 123 | 0.0 | 0.0 | 0.06 | 0.19 | 0.19 | 96 | 1010.9 |
| 20260509203031 | 57 | 123 | 0.0 | 1.0 | 0.00 | 0.18 | 0.18 | 96 | 1011.0 |
| 20260509202041 | 57 | 139 | 0.0 | 2.0 | 0.00 | 0.16 | 0.17 | 96 | 1011.0 |
| 20260509201024 | 57 | 160 | 0.0 | 0.0 | 0.04 | 0.16 | 0.17 | 96 | 1010.4 |
| 20260509194855 | 57 | 162 | 0.0 | 0.0 | 0.05 | 0.16 | 0.16 | 95 | 1011.0 |
| 20260509193839 | 57 | 162 | 0.0 | 0.0 | 0.06 | 0.14 | 0.15 | 95 | 1011.0 |
| 20260509191716 | 57 | 162 | 0.0 | 0.0 | 0.13 | 0.12 | 0.12 | 94 | 1011.0 |
| 20260509190716 | 57 | 163 | 0.0 | 0.0 | 0.08 | 0.09 | 0.10 | 94 | 1011.0 |
| 20260509185704 | 57 | 163 | 0.0 | 0.0 | 0.10 | 0.09 | 0.09 | 93 | 1010.9 |
| 20260509184642 | 57 | 165 | 0.0 | 0.0 | 0.08 | 0.06 | 0.06 | 93 | 1011.0 |
| 20260509183610 | 58 | 150 | 0.0 | 0.0 | 0.04 | 0.06 | 0.06 | 92 | 1010.5 |
| 20260509182548 | 58 | 150 | 0.0 | 0.0 | 0.05 | 0.04 | 0.05 | 90 | 1010.4 |
| 20260509175143 | 62 | 101 | 0.0 | 0.0 | 0.00 | 0.02 | 0.02 | 75 | 1010.3 |
| 20260509174130 | 64 | 116 | 0.0 | 0.0 | 0.00 | 0.02 | 0.02 | 72 | 1010.1 |
| 20260509173059 | 65 | 145 | 0.0 | 0.0 | 0.00 | 0.02 | 0.02 | 70 | 1010.1 |
| 20260509172026 | 66 | 23 | 0.0 | 2.0 | 0.00 | 0.02 | 0.02 | 68 | 1010.2 |
| 20260509171047 | 67 | 88 | 0.0 | 0.0 | 0.00 | 0.02 | 0.02 | 68 | 1010.3 |
| 20260509164958 | 67 | 104 | 0.0 | 2.0 | 0.00 | 0.02 | 0.02 | 71 | 1010.6 |
| 20260509164016 | 65 | 91 | 0.0 | 0.0 | 0.00 | 0.02 | 0.02 | 73 | 1011.0 |
| 20260509161804 | 64 | 293 | 0.0 | 0.0 | 0.00 | 0.02 | 0.02 | 76 | 1011.3 |
| 20260509160818 | 63 | 330 | 0.0 | 0.0 | 0.00 | 0.02 | 0.02 | 77 | 1011.3 |
| 20260509155806 | 62 | 352 | 0.0 | 0.0 | 0.00 | 0.02 | 0.02 | 76 | 1011.4 |
| 20260509154750 | 62 | 153 | 0.0 | 0.0 | 0.00 | 0.02 | 0.02 | 77 | 1011.5 |
| 20260509153732 | 62 | 158 | 0.0 | 0.0 | 0.00 | 0.02 | 0.02 | 75 | 1011.6 |
| 20260509152706 | 62 | 126 | 0.0 | 0.0 | 0.00 | 0.02 | 0.02 | 78 | 1011.7 |
| 20260509151712 | 61 | 188 | 0.0 | 0.0 | 0.00 | 0.02 | 0.02 | 77 | 1011.5 |
| 20260509150715 | 61 | 181 | 0.0 | 2.0 | 0.00 | 0.02 | 0.02 | 78 | 1011.6 |
| 20260509145656 | 62 | 94 | 0.0 | 1.0 | 0.00 | 0.02 | 0.02 | 77 | 1011.8 |
| 20260509144631 | 61 | 112 | 0.0 | 1.0 | 0.00 | 0.02 | 0.02 | 79 | 1011.7 |
| 20260509143632 | 60 | 188 | 0.0 | 1.0 | 0.00 | 0.02 | 0.02 | 81 | 1011.6 |
| 20260509142601 | 60 | 49 | 0.0 | 1.0 | 0.00 | 0.02 | 0.02 | 80 | 1011.9 |
| 20260509140434 | 59 | 249 | 0.0 | 4.0 | 0.00 | 0.02 | 0.02 | 82 | 1011.5 |
| 20260509134353 | 58 | 152 | 0.0 | 0.0 | 0.00 | 0.02 | 0.02 | 89 | 1012.0 |
| 20260509132320 | 56 | 263 | 0.0 | 0.0 | 0.00 | 0.02 | 0.02 | 94 | 1011.8 |
| 20260509131314 | 55 | 264 | 0.0 | 0.0 | 0.00 | 0.02 | 0.02 | 94 | 1012.1 |